Holtson Crossroads, South Carolina
Current Conditions -  °F | °C
As of 11:55 PM on Saturday 25 Oct 2014 (Local Time) from KAIK Reporting Station
Clear Clear  
Wind Chill: 50°   Ceiling: Unl
Heat Index: 50°   Visibility: 10mi
Dew Point: 45°   Wind: 3mph
Humidity: 82%   Direction: 260°W
Pressure: 30.01"   Gusts: NA
Location:  33.9549°N, 81.564°W
Report Text: KAIK 260355Z AUTO 26003KT 10SM CLR 10/07 A3001 RMK AO2 PNO
Loading
Personal Weather Stations






























Interactive Weather Map
Tropical Storm Tracking
New forecast layout! Learn more

10-Day Weather Forecast

Advertisements
Track Severe Weather on mobile